Time;durP1;ratioP1;P1;durP2;ratioP2;P2;SDS_P1;SDS_P2;PMS_P1;PMS_P2;Temp;Humidity;BMP_temperature;BMP_pressure;BME280_temperature;BME280_humidity;BME280_pressure;Samples;Min_cycle;Max_cycle;Signal;HPM_P1;HPM_P2
2023/03/26 00:01:22;;;;;;;3.57;0.90;;;10.50;99.90;;;;;;5154866;27;20719;-60
2023/03/26 00:03:52;;;;;;;3.60;1.00;;;10.40;99.90;;;;;;5155150;27;20244;-60
2023/03/26 00:06:21;;;;;;;1.70;0.73;;;10.30;99.90;;;;;;5155416;27;20253;-60
2023/03/26 00:08:51;;;;;;;2.50;1.17;;;10.10;99.90;;;;;;5155378;27;20202;-60
2023/03/26 00:11:20;;;;;;;2.47;1.07;;;9.90;99.90;;;;;;5154639;27;20202;-60
2023/03/26 00:13:48;;;;;;;2.07;0.77;;;9.80;99.90;;;;;;5155405;27;20251;-60
2023/03/26 00:16:16;;;;;;;2.40;0.93;;;9.70;99.90;;;;;;5156022;27;20223;-60
2023/03/26 00:18:44;;;;;;;3.03;1.17;;;9.70;99.90;;;;;;5155896;27;20202;-60
2023/03/26 00:21:13;;;;;;;1.70;0.80;;;9.50;99.90;;;;;;5158526;27;20221;-60
2023/03/26 00:23:40;;;;;;;7.10;1.47;;;9.40;99.90;;;;;;5160176;27;20667;-59
2023/03/26 00:26:10;;;;;;;5.13;1.23;;;9.30;99.90;;;;;;5160217;27;20285;-60
2023/03/26 00:28:39;;;;;;;3.70;1.03;;;9.30;99.90;;;;;;5159668;27;20234;-60
2023/03/26 00:31:07;;;;;;;2.70;1.00;;;9.20;99.90;;;;;;5159900;27;20259;-59
2023/03/26 00:33:37;;;;;;;2.83;1.10;;;9.20;99.90;;;;;;5159709;27;20220;-59
2023/03/26 00:36:08;;;;;;;2.33;1.00;;;9.20;99.90;;;;;;5160220;27;20278;-59
2023/03/26 00:38:37;;;;;;;4.13;1.10;;;9.10;99.90;;;;;;5159857;27;20209;-59
2023/03/26 00:41:06;;;;;;;4.20;1.30;;;9.10;99.90;;;;;;5159969;27;20226;-59
2023/03/26 00:43:36;;;;;;;2.17;1.17;;;9.10;99.90;;;;;;5160022;27;20206;-59
2023/03/26 00:46:03;;;;;;;2.63;1.23;;;9.20;99.90;;;;;;5160136;27;20229;-59
2023/03/26 00:48:30;;;;;;;5.43;1.17;;;9.20;99.90;;;;;;5160101;27;20212;-60
2023/03/26 00:50:57;;;;;;;2.73;0.93;;;9.20;99.90;;;;;;5159255;27;20561;-59
2023/03/26 00:53:24;;;;;;;2.00;0.87;;;9.20;99.90;;;;;;5159822;27;20206;-59
2023/03/26 00:55:51;;;;;;;4.10;1.37;;;9.20;99.90;;;;;;5159641;27;20307;-59
2023/03/26 00:58:21;;;;;;;2.50;1.10;;;9.20;99.90;;;;;;5159701;27;20206;-59
2023/03/26 01:00:56;;;;;;;3.80;1.20;;;9.20;99.90;;;;;;5159307;27;20242;-59
2023/03/26 01:03:24;;;;;;;2.93;1.00;;;9.10;99.90;;;;;;5159257;27;20250;-59
2023/03/26 01:05:52;;;;;;;3.47;1.13;;;9.10;99.90;;;;;;5159932;27;20230;-59
2023/03/26 01:08:29;;;;;;;2.27;1.07;;;9.10;99.90;;;;;;5159844;27;20202;-59
2023/03/26 01:11:03;;;;;;;3.47;1.37;;;9.10;99.90;;;;;;5159556;27;20202;-59
2023/03/26 01:13:33;;;;;;;1.53;1.00;;;9.10;99.90;;;;;;5159760;27;20198;-59
2023/03/26 01:16:02;;;;;;;3.20;1.20;;;9.00;99.90;;;;;;5159951;27;20222;-59
2023/03/26 01:18:39;;;;;;;3.37;1.10;;;8.90;99.90;;;;;;5160348;27;20209;-60
2023/03/26 01:21:08;;;;;;;3.07;0.90;;;9.00;99.90;;;;;;5159554;27;20320;-59
2023/03/26 01:23:47;;;;;;;4.17;1.40;;;9.00;99.90;;;;;;5159964;27;20209;-59
2023/03/26 01:26:37;;;;;;;2.23;1.20;;;9.00;99.90;;;;;;5160927;27;20261;-60
2023/03/26 01:29:07;;;;;;;2.77;1.07;;;9.10;99.90;;;;;;5160521;27;20297;-59
2023/03/26 01:31:41;;;;;;;6.40;1.43;;;9.10;99.90;;;;;;5159513;27;20289;-59
2023/03/26 01:34:17;;;;;;;2.20;0.83;;;9.10;99.90;;;;;;5159259;27;20198;-59
2023/03/26 01:36:52;;;;;;;2.43;1.13;;;9.10;99.90;;;;;;5159490;27;20198;-59
2023/03/26 01:39:25;;;;;;;3.40;1.30;;;9.10;99.90;;;;;;5160936;27;20205;-59
2023/03/26 01:41:57;;;;;;;3.63;1.00;;;9.10;99.90;;;;;;5159890;27;20226;-60
2023/03/26 01:44:30;;;;;;;3.93;1.30;;;9.10;99.90;;;;;;5159622;27;20194;-59
2023/03/26 01:46:58;;;;;;;3.57;1.10;;;9.10;99.90;;;;;;5159388;27;20665;-59
2023/03/26 01:49:27;;;;;;;2.87;1.10;;;9.00;99.90;;;;;;5158986;27;20213;-59
2023/03/26 01:51:55;;;;;;;3.30;1.27;;;8.90;99.90;;;;;;5159598;27;20221;-59
2023/03/26 01:54:25;;;;;;;3.43;1.20;;;9.00;99.90;;;;;;5157665;27;20233;-59
2023/03/26 01:57:05;;;;;;;3.13;1.07;;;9.00;99.90;;;;;;5157681;27;20198;-60
2023/03/26 01:59:49;;;;;;;4.03;1.40;;;9.10;99.90;;;;;;5157047;27;20210;-59
2023/03/26 02:02:21;;;;;;;4.00;1.20;;;9.10;99.90;;;;;;5157199;27;20674;-60
2023/03/26 02:04:56;;;;;;;1.70;1.00;;;9.10;99.90;;;;;;5157491;27;20701;-59
2023/03/26 02:07:27;;;;;;;4.33;1.33;;;9.10;99.90;;;;;;5157799;27;20202;-60
2023/03/26 02:10:00;;;;;;;4.70;1.47;;;9.10;99.90;;;;;;5157416;27;20688;-59
2023/03/26 02:12:30;;;;;;;3.13;1.43;;;9.10;99.90;;;;;;5157165;27;20627;-60
2023/03/26 02:14:59;;;;;;;3.47;1.00;;;9.20;99.90;;;;;;5157629;27;20235;-59
2023/03/26 02:17:28;;;;;;;4.37;1.07;;;9.20;99.90;;;;;;5157714;27;20231;-60
2023/03/26 02:19:55;;;;;;;3.17;1.30;;;9.30;99.90;;;;;;5158111;27;20693;-59
2023/03/26 02:22:28;;;;;;;3.13;1.27;;;9.20;99.90;;;;;;5158536;27;20589;-59
2023/03/26 02:24:55;;;;;;;1.13;0.77;;;9.30;99.90;;;;;;5158544;27;20491;-60
2023/03/26 02:27:22;;;;;;;3.13;1.17;;;9.40;99.90;;;;;;5157567;27;20198;-59
2023/03/26 02:29:50;;;;;;;3.60;1.47;;;9.50;99.90;;;;;;5157890;27;20202;-59
2023/03/26 02:32:18;;;;;;;5.47;1.43;;;9.40;99.90;;;;;;5157667;27;20198;-59
2023/03/26 02:34:46;;;;;;;2.60;1.10;;;9.50;99.90;;;;;;5157375;27;20248;-59
2023/03/26 02:37:13;;;;;;;3.47;1.40;;;9.50;99.90;;;;;;5156614;27;20202;-59
2023/03/26 02:39:39;;;;;;;3.53;1.37;;;9.60;99.90;;;;;;5157352;27;20213;-60
2023/03/26 02:42:06;;;;;;;4.30;1.33;;;9.50;99.90;;;;;;5156651;27;20275;-59
2023/03/26 02:44:33;;;;;;;4.30;1.27;;;9.50;99.90;;;;;;5155968;27;20334;-60
2023/03/26 02:47:01;;;;;;;5.00;1.60;;;9.60;99.90;;;;;;5156672;27;20209;-59
2023/03/26 02:49:28;;;;;;;5.10;1.23;;;9.70;99.90;;;;;;5156837;27;20238;-59
2023/03/26 02:51:55;;;;;;;5.00;1.20;;;9.70;99.90;;;;;;5156815;27;20218;-60
2023/03/26 02:54:23;;;;;;;3.43;1.40;;;9.80;99.90;;;;;;5156762;27;20202;-60
2023/03/26 02:56:49;;;;;;;4.43;1.10;;;9.80;99.90;;;;;;5156554;27;20206;-59
2023/03/26 02:59:16;;;;;;;6.30;1.20;;;9.80;99.90;;;;;;5156418;27;20218;-60
2023/03/26 03:01:43;;;;;;;2.50;1.20;;;9.80;99.90;;;;;;5156391;27;20596;-59
2023/03/26 03:04:12;;;;;;;5.30;1.27;;;9.80;99.90;;;;;;5156779;27;20246;-59
2023/03/26 03:06:40;;;;;;;2.60;1.20;;;9.80;99.90;;;;;;5112627;22;20233;-68
2023/03/26 03:09:07;;;;;;;6.00;2.03;;;9.80;99.90;;;;;;5089631;28;20203;-68
2023/03/26 03:11:34;;;;;;;3.77;1.47;;;9.60;99.90;;;;;;5093065;28;20240;-68
2023/03/26 03:14:01;;;;;;;4.00;1.20;;;9.70;99.90;;;;;;5092972;28;20680;-68
2023/03/26 03:16:28;;;;;;;2.80;1.10;;;9.70;99.90;;;;;;5092828;28;20231;-68
2023/03/26 03:18:55;;;;;;;2.77;1.00;;;9.70;99.90;;;;;;5092710;28;20207;-69
2023/03/26 03:21:25;;;;;;;1.27;0.70;;;9.80;99.90;;;;;;5092929;28;20200;-68
2023/03/26 03:23:51;;;;;;;4.93;1.20;;;9.90;99.90;;;;;;5093288;28;20207;-68
2023/03/26 03:26:21;;;;;;;5.30;1.43;;;9.90;99.90;;;;;;5093122;28;20642;-68
2023/03/26 03:28:48;;;;;;;3.37;1.30;;;9.90;99.90;;;;;;5092638;28;20314;-68
2023/03/26 03:31:15;;;;;;;5.07;1.40;;;9.90;99.90;;;;;;5092227;28;20209;-68
2023/03/26 03:33:42;;;;;;;2.10;1.00;;;10.00;99.90;;;;;;5092336;28;20196;-68
2023/03/26 03:36:10;;;;;;;4.23;1.43;;;10.10;99.90;;;;;;5092458;28;20220;-68
2023/03/26 03:38:39;;;;;;;5.03;1.37;;;10.10;99.90;;;;;;5092467;28;20206;-68
2023/03/26 03:41:07;;;;;;;4.10;1.30;;;10.20;99.90;;;;;;5092077;28;20231;-69
2023/03/26 03:43:34;;;;;;;7.83;1.77;;;10.10;99.90;;;;;;5092148;28;20231;-68
2023/03/26 03:46:01;;;;;;;4.10;1.20;;;10.20;99.90;;;;;;5091959;28;20224;-68
2023/03/26 03:48:28;;;;;;;7.60;1.20;;;10.20;99.90;;;;;;5092386;28;20208;-67
2023/03/26 03:50:56;;;;;;;5.03;1.40;;;10.30;99.90;;;;;;5092199;28;20212;-68
2023/03/26 03:53:25;;;;;;;4.57;1.23;;;10.30;99.90;;;;;;5092107;28;20721;-67
2023/03/26 03:55:53;;;;;;;6.93;1.63;;;10.30;99.90;;;;;;5092021;28;20235;-67
2023/03/26 03:58:21;;;;;;;4.30;1.50;;;10.40;99.90;;;;;;5092013;28;20200;-67
2023/03/26 04:00:48;;;;;;;3.93;1.50;;;10.50;99.90;;;;;;5092279;28;20268;-68
2023/03/26 04:03:15;;;;;;;71.10;34.70;;;10.60;99.90;;;;;;5092028;28;20228;-67
2023/03/26 04:05:48;;;;;;;117.47;55.37;;;10.60;99.90;;;;;;5091774;28;20227;-67
2023/03/26 04:08:15;;;;;;;21.10;10.67;;;10.60;99.90;;;;;;5091967;28;20310;-67
2023/03/26 04:10:42;;;;;;;8.90;3.47;;;10.60;99.90;;;;;;5091625;28;20207;-67
2023/03/26 04:13:10;;;;;;;6.50;1.73;;;10.70;99.90;;;;;;5091797;28;20299;-68
2023/03/26 04:15:37;;;;;;;5.60;1.60;;;10.60;99.90;;;;;;5091758;28;20772;-68
2023/03/26 04:18:09;;;;;;;4.90;1.63;;;10.60;99.90;;;;;;5092000;28;20236;-68
2023/03/26 04:20:36;;;;;;;3.27;1.27;;;10.70;99.90;;;;;;5091631;28;20710;-68
2023/03/26 04:23:03;;;;;;;3.40;1.20;;;10.70;99.90;;;;;;5091860;28;20232;-68
2023/03/26 04:25:32;;;;;;;5.97;1.60;;;10.70;99.90;;;;;;5091673;28;20231;-68
2023/03/26 04:28:00;;;;;;;7.83;1.40;;;10.70;99.90;;;;;;5091781;28;20204;-68
2023/03/26 04:30:28;;;;;;;6.47;1.67;;;10.80;99.90;;;;;;5091560;28;20205;-67
2023/03/26 04:32:57;;;;;;;4.93;1.50;;;10.80;99.90;;;;;;5091861;28;20208;-67
2023/03/26 04:35:24;;;;;;;7.57;1.53;;;10.90;99.90;;;;;;5091727;28;20232;-67
2023/03/26 04:37:51;;;;;;;3.43;1.30;;;10.80;99.90;;;;;;5092425;28;20211;-68
2023/03/26 04:40:21;;;;;;;8.43;2.50;;;10.90;99.90;;;;;;5092568;28;20200;-68
2023/03/26 04:42:48;;;;;;;5.20;1.37;;;10.90;99.90;;;;;;5092160;28;20224;-68
2023/03/26 04:45:21;;;;;;;5.70;1.33;;;10.90;99.90;;;;;;5092404;28;20235;-68
2023/03/26 04:47:49;;;;;;;4.17;1.20;;;10.90;99.90;;;;;;5091640;28;20265;-68
2023/03/26 04:50:16;;;;;;;6.67;1.30;;;10.90;99.90;;;;;;5091635;28;20215;-68
2023/03/26 04:52:43;;;;;;;3.53;1.33;;;10.90;99.90;;;;;;5091157;28;20196;-68
2023/03/26 04:55:19;;;;;;;4.30;1.50;;;10.90;99.90;;;;;;5091547;28;20229;-67
2023/03/26 04:57:52;;;;;;;7.27;1.67;;;10.90;99.90;;;;;;5091411;28;20218;-68
2023/03/26 05:00:19;;;;;;;6.80;1.50;;;10.80;99.90;;;;;;5091550;28;20201;-68
2023/03/26 05:02:48;;;;;;;4.00;1.50;;;10.60;99.90;;;;;;5091164;28;20228;-68
2023/03/26 05:05:17;;;;;;;4.50;1.50;;;10.50;99.90;;;;;;5091272;28;20236;-69
2023/03/26 05:07:44;;;;;;;5.80;1.43;;;10.30;99.90;;;;;;5094935;28;20208;-69
2023/03/26 05:10:13;;;;;;;5.70;1.80;;;10.30;99.90;;;;;;5095239;28;20247;-69
2023/03/26 05:12:40;;;;;;;3.37;1.33;;;10.30;99.90;;;;;;5095169;28;20200;-69
2023/03/26 05:15:08;;;;;;;6.80;1.50;;;10.30;99.90;;;;;;5095108;28;20228;-69
2023/03/26 05:17:40;;;;;;;3.50;1.37;;;10.40;99.90;;;;;;5095221;28;20319;-69
2023/03/26 05:20:08;;;;;;;6.10;2.20;;;10.40;99.90;;;;;;5095536;28;20220;-69
2023/03/26 05:22:37;;;;;;;6.53;1.50;;;10.50;99.90;;;;;;5094954;28;20662;-69
2023/03/26 05:25:04;;;;;;;4.67;1.40;;;10.30;99.90;;;;;;5095250;28;20311;-69
2023/03/26 05:27:31;;;;;;;6.73;1.80;;;10.30;99.90;;;;;;5095099;28;20211;-70
2023/03/26 05:30:00;;;;;;;8.43;4.50;;;10.40;99.90;;;;;;5094773;28;20269;-69
2023/03/26 05:32:27;;;;;;;11.97;5.40;;;10.40;99.90;;;;;;5094293;28;20200;-69
2023/03/26 05:34:54;;;;;;;4.80;1.80;;;10.50;99.90;;;;;;5094481;28;20239;-69
2023/03/26 05:37:23;;;;;;;5.63;1.70;;;10.60;99.90;;;;;;5094726;28;20298;-69
2023/03/26 05:39:53;;;;;;;7.07;1.63;;;10.70;99.90;;;;;;5094452;28;20698;-69
2023/03/26 05:42:20;;;;;;;6.80;2.17;;;10.70;99.90;;;;;;5094319;28;20269;-69
2023/03/26 05:44:47;;;;;;;11.10;2.00;;;10.80;99.90;;;;;;5094238;28;20676;-70
2023/03/26 05:47:13;;;;;;;7.57;1.87;;;10.90;99.90;;;;;;5094578;28;20208;-67
2023/03/26 05:49:40;;;;;;;6.83;1.50;;;11.00;99.90;;;;;;5094355;28;20736;-67
2023/03/26 05:52:07;;;;;;;9.87;2.27;;;11.10;99.90;;;;;;5094390;28;20211;-69
2023/03/26 05:54:34;;;;;;;6.67;2.40;;;11.20;99.90;;;;;;5094258;28;20556;-68
2023/03/26 05:57:02;;;;;;;6.10;1.90;;;11.20;99.90;;;;;;5094301;28;20208;-68
2023/03/26 05:59:29;;;;;;;7.03;2.40;;;11.30;99.90;;;;;;5094003;28;20208;-68
2023/03/26 06:01:56;;;;;;;4.13;1.73;;;11.40;99.90;;;;;;5094100;28;20200;-70
2023/03/26 06:04:22;;;;;;;6.17;1.60;;;11.50;99.90;;;;;;5093990;28;20707;-68
2023/03/26 06:06:51;;;;;;;11.30;3.30;;;11.50;99.90;;;;;;5093852;28;20617;-69
2023/03/26 06:09:18;;;;;;;9.20;3.27;;;11.50;99.90;;;;;;5094070;28;20208;-67
2023/03/26 06:11:45;;;;;;;10.13;2.80;;;11.60;99.90;;;;;;5093590;28;20254;-68
2023/03/26 06:14:13;;;;;;;8.53;3.13;;;11.70;99.90;;;;;;5094110;28;20208;-68
2023/03/26 06:16:40;;;;;;;13.43;8.07;;;11.80;99.90;;;;;;5093446;28;20711;-68
2023/03/26 06:19:06;;;;;;;10.63;3.57;;;11.70;99.90;;;;;;5093910;28;20311;-68
2023/03/26 06:21:33;;;;;;;5.87;2.70;;;11.70;99.90;;;;;;5093513;28;20283;-68
2023/03/26 06:24:00;;;;;;;7.30;2.70;;;11.60;99.90;;;;;;5093428;28;20285;-68
2023/03/26 06:26:26;;;;;;;5.67;1.90;;;11.60;99.90;;;;;;5093364;28;20235;-68
2023/03/26 06:28:53;;;;;;;9.20;2.20;;;11.60;99.90;;;;;;5093481;28;20208;-69
2023/03/26 06:31:21;;;;;;;7.03;2.30;;;11.60;99.90;;;;;;5093389;28;20204;-68
2023/03/26 06:33:48;;;;;;;3.83;1.30;;;11.60;99.90;;;;;;5093618;28;20207;-68
2023/03/26 06:36:15;;;;;;;3.27;1.33;;;11.70;99.90;;;;;;5093534;28;20263;-68
2023/03/26 06:38:42;;;;;;;3.93;1.30;;;11.60;99.90;;;;;;5093407;28;20200;-64
2023/03/26 06:41:08;;;;;;;3.17;1.73;;;11.50;99.90;;;;;;5093117;28;20205;-65
2023/03/26 06:43:36;;;;;;;2.37;1.10;;;11.50;99.90;;;;;;5093243;28;20235;-64
2023/03/26 06:46:03;;;;;;;3.43;1.03;;;11.50;99.90;;;;;;5093191;28;20239;-64
2023/03/26 06:48:31;;;;;;;5.27;1.57;;;11.60;99.90;;;;;;5093149;28;20215;-64
2023/03/26 06:50:58;;;;;;;3.33;1.17;;;11.70;99.90;;;;;;5092830;28;20213;-64
2023/03/26 06:53:25;;;;;;;3.83;1.40;;;11.80;99.90;;;;;;5093076;28;20200;-64
2023/03/26 06:55:53;;;;;;;4.87;1.70;;;11.90;99.90;;;;;;5093310;28;20231;-64
2023/03/26 06:58:20;;;;;;;3.47;1.00;;;11.80;99.90;;;;;;5093486;28;20204;-64
2023/03/26 07:00:47;;;;;;;3.83;1.23;;;11.90;99.90;;;;;;5093312;28;20212;-64
2023/03/26 07:03:16;;;;;;;4.83;2.10;;;12.10;99.90;;;;;;5093641;28;20220;-64
2023/03/26 07:05:44;;;;;;;3.60;1.57;;;12.10;99.90;;;;;;5092896;28;20727;-64
2023/03/26 07:08:10;;;;;;;5.80;1.40;;;12.10;99.90;;;;;;5092861;28;20694;-64
2023/03/26 07:10:37;;;;;;;2.50;1.47;;;12.20;99.90;;;;;;5093067;28;20200;-64
2023/03/26 07:13:04;;;;;;;4.57;1.70;;;12.20;99.90;;;;;;5092790;28;20211;-63
2023/03/26 07:15:31;;;;;;;7.90;2.00;;;12.30;99.90;;;;;;5092476;28;20707;-63
2023/03/26 07:17:58;;;;;;;3.73;1.83;;;12.30;99.90;;;;;;5092558;28;20211;-64
2023/03/26 07:20:25;;;;;;;3.20;1.23;;;12.30;99.90;;;;;;5092611;28;20215;-64
2023/03/26 07:22:54;;;;;;;6.37;1.50;;;12.20;99.90;;;;;;5092361;28;20231;-65
2023/03/26 07:25:21;;;;;;;4.27;1.30;;;12.10;99.90;;;;;;5092703;28;20288;-65
2023/03/26 07:28:00;;;;;;;4.40;1.60;;;12.00;99.90;;;;;;5092639;28;20211;-65
2023/03/26 07:30:32;;;;;;;3.83;1.20;;;11.80;99.90;;;;;;5092416;28;20204;-64
2023/03/26 07:33:03;;;;;;;4.53;1.50;;;11.70;99.90;;;;;;5092421;28;20208;-64
2023/03/26 07:35:36;;;;;;;4.93;1.80;;;11.60;99.90;;;;;;5092753;28;20231;-65
2023/03/26 07:38:19;;;;;;;2.50;1.23;;;11.50;99.90;;;;;;5092649;28;20208;-64
2023/03/26 07:40:53;;;;;;;4.20;1.30;;;11.50;99.90;;;;;;5092308;28;20204;-66
2023/03/26 07:43:31;;;;;;;5.80;1.60;;;11.40;99.90;;;;;;5092433;28;20227;-64
2023/03/26 07:45:58;;;;;;;3.43;1.40;;;11.30;99.90;;;;;;5092702;28;20234;-64
2023/03/26 07:48:29;;;;;;;3.50;1.67;;;11.40;99.90;;;;;;5092622;28;20230;-64
2023/03/26 07:50:57;;;;;;;5.40;1.73;;;11.30;99.90;;;;;;5092174;28;20640;-64
2023/03/26 07:53:25;;;;;;;3.53;1.30;;;11.20;99.90;;;;;;5092502;28;20291;-64
2023/03/26 07:55:57;;;;;;;3.23;1.33;;;11.20;99.90;;;;;;5092250;28;20228;-64
2023/03/26 07:58:40;;;;;;;6.73;2.03;;;11.20;99.90;;;;;;5092108;28;20576;-64
2023/03/26 08:01:12;;;;;;;4.80;1.20;;;11.30;99.90;;;;;;5092064;28;20652;-64
2023/03/26 08:04:23;;;;;;;5.57;1.53;;;11.30;99.90;;;;;;5091847;28;20680;-64
2023/03/26 08:06:56;;;;;;;4.77;1.70;;;11.30;99.90;;;;;;5072061;28;20292;-64
2023/03/26 08:09:30;;;;;;;4.87;1.37;;;11.20;99.90;;;;;;5092411;28;20208;-64
2023/03/26 08:12:00;;;;;;;3.80;1.50;;;11.30;99.90;;;;;;5091848;28;20207;-64
2023/03/26 08:14:40;;;;;;;3.87;1.40;;;11.40;99.90;;;;;;5091945;28;20200;-66
2023/03/26 08:17:11;;;;;;;3.30;1.73;;;11.50;99.90;;;;;;5092113;28;20295;-64
2023/03/26 08:19:50;;;;;;;3.73;1.53;;;11.50;99.90;;;;;;5092194;28;20207;-64
2023/03/26 08:22:25;;;;;;;6.83;2.23;;;11.40;99.90;;;;;;5092319;28;20290;-64
2023/03/26 08:25:32;;;;;;;5.17;1.97;;;11.40;99.90;;;;;;5091907;28;20232;-64
2023/03/26 08:28:14;;;;;;;4.13;1.53;;;11.40;99.90;;;;;;5049401;28;20209;-64
2023/03/26 08:30:41;;;;;;;5.50;2.07;;;11.40;99.90;;;;;;5086632;28;20207;-64
2023/03/26 08:33:13;;;;;;;3.43;1.73;;;11.50;99.90;;;;;;5091622;28;20219;-65
2023/03/26 08:35:41;;;;;;;4.70;2.07;;;11.50;99.90;;;;;;5091646;28;20220;-65
2023/03/26 08:38:08;;;;;;;7.67;2.03;;;11.60;99.90;;;;;;5091731;28;20655;-65
2023/03/26 08:41:29;;;;;;;6.47;2.67;;;11.50;99.90;;;;;;5091905;28;20208;-64
2023/03/26 08:44:35;;;;;;;6.47;2.30;;;11.50;99.90;;;;;;5093618;28;20703;-65
2023/03/26 08:47:34;;;;;;;6.07;2.00;;;11.40;99.90;;;;;;5095728;28;20215;-64
2023/03/26 08:50:35;;;;;;;7.50;2.10;;;11.30;99.90;;;;;;5095694;28;20208;-64
2023/03/26 08:53:33;;;;;;;4.53;2.17;;;11.30;99.90;;;;;;5095471;28;20281;-64
2023/03/26 08:56:07;;;;;;;5.47;2.97;;;11.40;99.90;;;;;;5095365;28;20232;-64
2023/03/26 08:58:53;;;;;;;5.23;2.00;;;11.30;99.90;;;;;;5095311;28;20215;-64
2023/03/26 09:01:47;;;;;;;6.23;2.30;;;11.30;99.90;;;;;;5095053;28;20204;-64
2023/03/26 09:04:42;;;;;;;9.93;2.87;;;11.50;99.90;;;;;;5095298;28;20224;-64
2023/03/26 09:07:47;;;;;;;3.60;2.07;;;11.60;99.90;;;;;;5119502;22;20791;-57
2023/03/26 09:10:46;;;;;;;7.43;1.93;;;11.60;99.90;;;;;;5095908;28;20302;-57
2023/03/26 09:14:10;;;;;;;5.27;1.70;;;11.40;99.90;;;;;;5095281;28;20211;-57
2023/03/26 09:17:11;;;;;;;3.30;1.83;;;11.20;99.90;;;;;;5032880;28;20230;-58
2023/03/26 09:20:23;;;;;;;5.30;2.10;;;11.20;99.90;;;;;;5033175;28;20190;-58
2023/03/26 09:23:30;;;;;;;6.67;2.07;;;11.20;99.90;;;;;;5064656;28;20209;-59
2023/03/26 09:26:10;;;;;;;3.60;1.83;;;11.50;99.90;;;;;;5072047;28;20221;-58
2023/03/26 09:29:14;;;;;;;5.17;1.87;;;11.90;99.90;;;;;;5075502;28;20204;-58
2023/03/26 09:31:56;;;;;;;3.50;1.80;;;12.10;99.90;;;;;;5052722;28;20210;-61
2023/03/26 09:34:30;;;;;;;4.60;1.80;;;12.40;99.90;;;;;;5060886;28;20679;-60
2023/03/26 09:37:13;;;;;;;5.83;2.13;;;12.20;99.90;;;;;;5075637;28;20231;-60
2023/03/26 09:39:50;;;;;;;5.63;1.70;;;11.90;99.90;;;;;;5073755;28;20671;-59
2023/03/26 09:42:23;;;;;;;4.20;2.30;;;11.60;99.90;;;;;;5073657;28;20204;-61
2023/03/26 09:45:29;;;;;;;4.80;2.43;;;11.70;99.90;;;;;;5074259;28;20695;-59
2023/03/26 09:48:20;;;;;;;6.83;2.30;;;12.20;99.90;;;;;;5067766;28;20209;-60
2023/03/26 09:50:57;;;;;;;4.17;1.93;;;12.90;99.90;;;;;;5074272;28;20569;-60
2023/03/26 09:53:50;;;;;;;4.70;2.23;;;13.70;99.90;;;;;;5073467;28;20239;-60
2023/03/26 09:56:27;;;;;;;9.03;4.10;;;14.30;99.90;;;;;;5072342;28;20221;-60
2023/03/26 09:59:13;;;;;;;4.17;1.80;;;14.70;99.90;;;;;;5074363;28;20208;-60
2023/03/26 10:01:46;;;;;;;3.93;1.73;;;15.20;99.90;;;;;;5074374;28;20212;-60
2023/03/26 10:04:40;;;;;;;2.63;1.20;;;15.70;99.90;;;;;;5073783;28;20671;-60
2023/03/26 10:07:19;;;;;;;4.30;1.30;;;16.00;99.90;;;;;;5073559;28;20233;-60
2023/03/26 10:09:54;;;;;;;2.00;1.10;;;16.20;99.90;;;;;;5074008;28;20211;-60
2023/03/26 10:12:35;;;;;;;4.07;2.20;;;16.40;99.90;;;;;;5073418;28;20236;-60
2023/03/26 10:15:27;;;;;;;2.05;1.00;;;16.40;99.90;;;;;;5074123;28;20626;-60
2023/03/26 10:18:04;;;;;;;5.32;3.13;;;16.20;99.90;;;;;;5073805;28;20204;-60
2023/03/26 10:20:49;;;;;;;2.40;1.03;;;16.10;99.90;;;;;;5074441;28;20271;-60
2023/03/26 10:23:37;;;;;;;3.83;1.10;;;16.20;99.90;;;;;;5074186;28;20228;-60
2023/03/26 10:26:16;;;;;;;2.53;1.13;;;16.30;99.90;;;;;;5074991;28;20221;-61
2023/03/26 10:29:18;;;;;;;3.70;1.10;;;16.70;99.90;;;;;;5074928;28;20211;-60
2023/03/26 10:31:47;;;;;;;3.97;1.90;;;17.10;99.90;;;;;;5057490;28;20208;-61
2023/03/26 10:34:39;;;;;;;2.60;1.50;;;17.40;99.90;;;;;;5075222;28;20209;-62
2023/03/26 10:37:13;;;;;;;3.08;1.10;;;17.40;99.90;;;;;;5073841;28;20331;-57
2023/03/26 10:40:12;;;;;;;1.70;1.00;;;17.10;99.90;;;;;;5074534;28;20274;-58
2023/03/26 10:43:04;;;;;;;4.10;2.00;;;16.70;99.90;;;;;;5073949;28;20676;-58
2023/03/26 10:45:53;;;;;;;2.93;1.30;;;16.30;99.90;;;;;;5074449;28;20264;-59
2023/03/26 10:48:48;;;;;;;3.13;1.80;;;15.90;99.90;;;;;;5074338;28;20201;-58
2023/03/26 10:51:34;;;;;;;6.50;3.47;;;15.70;99.90;;;;;;5073723;28;20208;-59
2023/03/26 10:54:08;;;;;;;2.57;0.93;;;15.70;99.90;;;;;;5074040;28;20290;-58
2023/03/26 10:56:40;;;;;;;2.37;1.10;;;15.90;99.90;;;;;;5073456;28;20238;-58
2023/03/26 10:59:11;;;;;;;2.07;1.00;;;16.10;99.90;;;;;;5073751;28;20691;-58
2023/03/26 11:01:43;;;;;;;2.87;1.10;;;16.20;99.90;;;;;;5073636;28;20277;-58
2023/03/26 11:04:23;;;;;;;3.03;1.20;;;16.30;99.90;;;;;;5073823;28;20225;-58
2023/03/26 11:07:01;;;;;;;2.47;1.20;;;16.50;99.90;;;;;;5073769;28;20225;-58
2023/03/26 11:09:35;;;;;;;4.05;1.52;;;16.80;99.90;;;;;;5074381;28;20204;-58
2023/03/26 11:12:10;;;;;;;2.67;1.05;;;17.00;99.90;;;;;;5073948;28;20713;-59
2023/03/26 11:14:47;;;;;;;2.37;1.23;;;17.20;99.90;;;;;;5074103;28;20200;-57
2023/03/26 11:17:22;;;;;;;2.53;0.90;;;17.30;99.90;;;;;;5073724;28;20300;-58
2023/03/26 11:19:52;;;;;;;3.65;0.88;;;17.30;99.90;;;;;;5073474;28;20213;-58
2023/03/26 11:22:29;;;;;;;1.67;0.50;;;17.50;99.90;;;;;;5073520;28;20225;-59
2023/03/26 11:25:15;;;;;;;2.60;1.20;;;17.50;99.90;;;;;;5074059;28;20582;-57
2023/03/26 11:27:55;;;;;;;1.45;0.75;;;17.40;99.80;;;;;;5075179;28;20607;-57
2023/03/26 11:30:32;;;;;;;1.92;1.13;;;17.30;99.90;;;;;;5074131;28;20217;-57
2023/03/26 11:33:03;;;;;;;1.63;0.60;;;17.40;99.90;;;;;;5074625;28;20292;-57
2023/03/26 11:35:33;;;;;;;2.53;0.75;;;17.20;98.80;;;;;;5074536;28;20216;-57
2023/03/26 11:38:05;;;;;;;1.55;0.68;;;17.10;98.30;;;;;;5074497;28;20208;-57
2023/03/26 11:40:36;;;;;;;1.10;0.60;;;17.00;98.60;;;;;;5074529;28;20745;-57
2023/03/26 11:43:08;;;;;;;1.48;0.60;;;16.80;98.30;;;;;;5073920;28;20573;-57
2023/03/26 11:45:37;;;;;;;1.65;0.80;;;16.80;98.30;;;;;;5073857;28;20235;-57
2023/03/26 11:48:10;;;;;;;2.03;1.13;;;16.70;98.30;;;;;;5074029;28;20209;-55
2023/03/26 11:50:43;;;;;;;1.70;0.40;;;16.60;98.30;;;;;;5073783;28;20200;-58
2023/03/26 11:53:13;;;;;;;1.67;0.60;;;16.60;97.40;;;;;;5073538;28;20212;-56
2023/03/26 11:55:44;;;;;;;1.13;0.60;;;16.70;97.80;;;;;;5073972;28;20328;-56
2023/03/26 11:58:24;;;;;;;1.00;0.60;;;16.90;97.50;;;;;;5073748;28;20292;-58
2023/03/26 12:00:54;;;;;;;2.80;0.65;;;17.10;96.20;;;;;;5073747;28;20212;-56
2023/03/26 12:03:21;;;;;;;1.85;0.60;;;17.10;96.10;;;;;;5073206;28;20209;-57
2023/03/26 12:05:49;;;;;;;1.20;0.60;;;17.00;95.80;;;;;;5072594;28;20232;-58
2023/03/26 12:08:22;;;;;;;1.70;0.40;;;16.80;96.10;;;;;;5072870;28;20208;-58
2023/03/26 12:11:00;;;;;;;3.37;0.97;;;16.50;99.20;;;;;;5073360;28;20204;-57
2023/03/26 12:13:39;;;;;;;7.80;1.50;;;16.30;99.90;;;;;;5072949;28;20577;-58
2023/03/26 12:16:10;;;;;;;2.30;1.03;;;16.40;99.90;;;;;;5075700;28;20221;-57
2023/03/26 12:18:40;;;;;;;2.33;1.03;;;16.60;99.90;;;;;;5077468;28;20205;-57
2023/03/26 12:21:09;;;;;;;3.28;1.10;;;16.70;99.90;;;;;;5077315;28;20201;-57
2023/03/26 12:23:54;;;;;;;3.33;0.87;;;16.50;99.90;;;;;;5077971;28;20215;-57
2023/03/26 12:26:35;;;;;;;6.50;4.30;;;16.40;99.90;;;;;;5077742;28;20292;-58
2023/03/26 12:29:10;;;;;;;3.37;1.57;;;16.10;99.90;;;;;;5077427;28;20433;-58
2023/03/26 12:31:52;;;;;;;2.63;1.00;;;15.80;99.90;;;;;;5077507;28;20210;-58
2023/03/26 12:34:21;;;;;;;2.50;1.40;;;15.50;99.90;;;;;;5077639;28;20221;-58
2023/03/26 12:36:50;;;;;;;3.20;0.80;;;15.10;99.90;;;;;;5077095;28;20224;-60
2023/03/26 12:39:29;;;;;;;6.00;2.00;;;14.80;99.90;;;;;;5077248;28;20232;-58
2023/03/26 12:41:57;;;;;;;1.97;1.30;;;14.80;99.90;;;;;;5077016;28;20208;-57
2023/03/26 12:44:30;;;;;;;4.17;1.30;;;15.00;99.90;;;;;;5076820;28;20653;-57
2023/03/26 12:47:14;;;;;;;2.37;1.40;;;15.30;99.90;;;;;;5076769;28;20231;-57
2023/03/26 12:49:42;;;;;;;4.57;2.50;;;15.40;99.90;;;;;;5078770;28;20219;-57
2023/03/26 12:52:37;;;;;;;1.13;0.77;;;15.60;99.90;;;;;;5076981;28;20236;-57
2023/03/26 12:55:13;;;;;;;0.70;0.50;;;15.80;99.90;;;;;;5076681;28;20197;-57
2023/03/26 12:57:47;;;;;;;1.37;0.73;;;15.90;99.90;;;;;;5077187;28;20663;-56
2023/03/26 13:00:29;;;;;;;1.42;0.88;;;16.20;99.90;;;;;;5077354;28;20659;-57
2023/03/26 13:03:16;;;;;;;2.60;1.80;;;16.40;99.90;;;;;;5077006;28;20661;-57
2023/03/26 13:05:56;;;;;;;0.87;0.60;;;16.40;99.90;;;;;;5076923;28;20242;-57
2023/03/26 13:08:46;;;;;;;1.97;0.83;;;16.20;99.90;;;;;;5076454;28;20713;-57
2023/03/26 13:11:23;;;;;;;1.87;0.93;;;16.10;99.90;;;;;;5077043;28;20209;-58
2023/03/26 13:14:13;;;;;;;2.10;0.80;;;16.20;99.90;;;;;;5076760;28;20232;-58
2023/03/26 13:16:48;;;;;;;2.70;1.30;;;16.30;99.90;;;;;;5076756;28;20274;-58
2023/03/26 13:19:20;;;;;;;2.43;1.00;;;16.30;99.90;;;;;;5077594;28;20196;-58
2023/03/26 13:22:05;;;;;;;3.50;0.90;;;16.30;99.90;;;;;;5076243;28;20227;-58